Time;durP1;ratioP1;P1;durP2;ratioP2;P2;SDS_P1;SDS_P2;PMS_P1;PMS_P2;Temp;Humidity;BMP_temperature;BMP_pressure;BME280_temperature;BME280_humidity;BME280_pressure;Samples;Min_cycle;Max_cycle;Signal;HPM_P1;HPM_P2
2022/12/07 00:01:45;;;;;;;0.73;0.73;;;;;;;9.66;100.00;95469.50;5075195;28;20422;-54
2022/12/07 00:04:15;;;;;;;1.67;1.57;;;;;;;9.28;100.00;95417.78;5075080;28;20420;-54
2022/12/07 00:06:45;;;;;;;2.10;1.67;;;;;;;9.35;100.00;95439.50;5075035;28;20433;-54
2022/12/07 00:09:16;;;;;;;1.23;1.13;;;;;;;9.59;100.00;95469.72;5074975;28;20433;-54
2022/12/07 00:11:44;;;;;;;4.37;1.80;;;;;;;9.42;100.00;95461.19;5075168;28;20482;-54
2022/12/07 00:14:14;;;;;;;1.00;0.77;;;;;;;9.54;100.00;95470.53;5074704;28;20436;-53
2022/12/07 00:16:45;;;;;;;0.67;0.67;;;;;;;9.65;100.00;95465.25;5074850;28;20417;-54
2022/12/07 00:19:15;;;;;;;1.67;0.70;;;;;;;9.61;100.00;95465.00;5074012;28;20492;-54
2022/12/07 00:21:44;;;;;;;1.50;1.40;;;;;;;9.27;100.00;95408.25;5074879;28;20511;-54
2022/12/07 00:24:13;;;;;;;7.50;0.93;;;;;;;9.59;100.00;95454.66;5074743;28;20428;-54
2022/12/07 00:26:43;;;;;;;1.27;1.27;;;;;;;9.65;100.00;95457.31;5074464;28;20505;-54
2022/12/07 00:29:16;;;;;;;0.60;0.60;;;;;;;9.71;100.00;95451.00;5074284;28;20955;-54
2022/12/07 00:31:46;;;;;;;2.67;2.57;;;;;;;9.43;100.00;95457.50;5074461;28;20800;-54
2022/12/07 00:34:16;;;;;;;2.37;2.27;;;;;;;9.57;100.00;95455.97;5074599;28;20782;-54
2022/12/07 00:36:45;;;;;;;1.90;1.73;;;;;;;9.47;100.00;95459.38;5074541;28;20432;-53
2022/12/07 00:39:13;;;;;;;3.50;3.30;;;;;;;9.06;100.00;95374.84;5073180;28;20428;-54
2022/12/07 00:41:41;;;;;;;1.90;1.80;;;;;;;9.63;100.00;95447.00;5074421;28;20822;-54
2022/12/07 00:44:10;;;;;;;0.90;0.90;;;;;;;9.63;100.00;95451.50;5073423;28;20524;-54
2022/12/07 00:46:38;;;;;;;1.60;1.40;;;;;;;9.67;100.00;95445.44;5074103;28;20428;-53
2022/12/07 00:49:08;;;;;;;1.67;1.23;;;;;;;9.69;100.00;95427.44;5073747;28;20475;-53
2022/12/07 00:51:36;;;;;;;1.60;1.50;;;;;;;9.81;100.00;95438.59;5073969;28;20426;-54
2022/12/07 00:54:05;;;;;;;4.67;1.10;;;;;;;9.83;100.00;95428.53;5073410;28;20545;-54
2022/12/07 00:56:33;;;;;;;1.33;1.23;;;;;;;9.66;100.00;95427.97;5073844;28;20502;-54
2022/12/07 00:59:03;;;;;;;1.53;1.43;;;;;;;9.56;100.00;95431.34;5073300;28;20420;-54
2022/12/07 01:01:33;;;;;;;5.13;2.00;;;;;;;9.69;100.00;95427.44;5073444;28;20481;-54
2022/12/07 01:04:03;;;;;;;3.13;1.50;;;;;;;9.12;100.00;95337.59;5072653;28;20430;-54
2022/12/07 01:06:33;;;;;;;1.83;1.73;;;;;;;9.54;100.00;95411.50;5072594;28;20993;-54
2022/12/07 01:09:01;;;;;;;0.87;0.87;;;;;;;9.63;100.00;95436.44;5072829;28;20432;-54
2022/12/07 01:11:30;;;;;;;2.73;2.00;;;;;;;9.01;100.00;95312.16;5073858;28;20988;-53
2022/12/07 01:14:00;;;;;;;2.20;2.10;;;;;;;9.72;100.00;95418.16;5072712;28;20434;-54
2022/12/07 01:16:31;;;;;;;1.80;1.70;;;;;;;9.73;100.00;95412.63;5073458;28;20432;-54
2022/12/07 01:19:01;;;;;;;2.47;2.37;;;;;;;9.72;100.00;95416.31;5073271;28;20461;-54
2022/12/07 01:21:34;;;;;;;0.50;0.50;;;;;;;9.44;100.00;95414.13;5073465;28;20471;-54
2022/12/07 01:24:03;;;;;;;4.43;1.07;;;;;;;8.91;100.00;95418.66;5072183;28;20474;-54
2022/12/07 01:26:32;;;;;;;3.00;2.80;;;;;;;8.70;100.00;95414.28;5073478;28;20495;-54
2022/12/07 01:29:00;;;;;;;2.33;2.23;;;;;;;9.05;100.00;95426.13;5073140;28;20441;-54
2022/12/07 01:31:30;;;;;;;1.00;0.87;;;;;;;9.12;100.00;95429.31;5073504;28;20440;-54
2022/12/07 01:34:00;;;;;;;1.80;1.50;;;;;;;8.91;100.00;95420.47;5073407;28;20428;-54
2022/12/07 01:36:30;;;;;;;1.20;1.20;;;;;;;8.76;100.00;95407.97;5073322;28;20456;-54
2022/12/07 01:39:02;;;;;;;1.00;1.00;;;;;;;9.00;100.00;95418.97;5072987;28;20420;-54
2022/12/07 01:41:33;;;;;;;1.97;1.87;;;;;;;9.06;100.00;95404.69;5072374;28;20466;-54
2022/12/07 01:44:23;;;;;;;2.80;0.80;;;;;;;9.23;100.00;95413.28;5073180;28;20427;-54
2022/12/07 01:46:54;;;;;;;2.37;0.83;;;;;;;9.07;100.00;95413.44;5068898;28;20443;-53
2022/12/07 01:49:29;;;;;;;1.40;1.30;;;;;;;8.95;100.00;95408.38;5072644;28;20442;-54
2022/12/07 01:52:05;;;;;;;1.50;1.40;;;;;;;8.94;100.00;95412.84;5072466;28;20542;-53
2022/12/07 01:54:36;;;;;;;1.17;1.07;;;;;;;9.02;100.00;95392.25;5072655;28;20449;-53
2022/12/07 01:57:05;;;;;;;0.73;0.73;;;;;;;9.15;100.00;95407.66;5073007;28;20439;-54
2022/12/07 01:59:35;;;;;;;2.53;0.60;;;;;;;9.23;100.00;95397.41;5072548;28;20990;-53
2022/12/07 02:02:08;;;;;;;1.10;1.10;;;;;;;8.80;100.00;95401.13;5072575;28;20463;-54
2022/12/07 02:04:37;;;;;;;0.50;0.50;;;;;;;8.53;100.00;95397.78;5072471;28;20423;-54
2022/12/07 02:07:06;;;;;;;2.77;1.37;;;;;;;8.43;100.00;95384.50;5072434;28;20435;-53
2022/12/07 02:09:39;;;;;;;0.43;0.43;;;;;;;8.78;100.00;95387.38;5072765;28;20423;-54
2022/12/07 02:12:07;;;;;;;0.80;0.80;;;;;;;8.66;100.00;95393.91;5072330;28;20443;-54
2022/12/07 02:14:36;;;;;;;1.63;1.53;;;;;;;8.40;100.00;95389.53;5072111;28;20427;-54
2022/12/07 02:17:12;;;;;;;0.63;0.63;;;;;;;7.97;100.00;95314.72;5072050;28;20535;-53
2022/12/07 02:20:14;;;;;;;0.80;0.70;;;;;;;8.83;100.00;95384.75;5072382;28;20427;-54
2022/12/07 02:23:18;;;;;;;1.23;0.93;;;;;;;8.86;100.00;95376.31;5072457;28;20486;-54
2022/12/07 02:26:03;;;;;;;1.70;0.97;;;;;;;8.87;100.00;95390.34;5051643;28;20536;-53
2022/12/07 02:28:36;;;;;;;0.30;0.30;;;;;;;8.29;100.00;95280.38;5072519;28;20464;-53
2022/12/07 02:31:11;;;;;;;5.77;0.70;;;;;;;8.91;100.00;95379.00;5072404;28;20546;-54
2022/12/07 02:33:46;;;;;;;1.17;1.17;;;;;;;8.77;100.00;95377.88;5072456;28;20433;-53
2022/12/07 02:36:22;;;;;;;0.60;0.43;;;;;;;8.90;100.00;95369.47;5072117;28;20444;-53
2022/12/07 02:38:57;;;;;;;0.93;0.90;;;;;;;9.01;100.00;95372.16;5072370;28;20438;-53
2022/12/07 02:41:28;;;;;;;1.37;1.27;;;;;;;8.65;100.00;95371.19;5071903;28;20477;-53
2022/12/07 02:44:00;;;;;;;4.30;0.90;;;;;;;8.62;100.00;95359.28;5072023;28;20422;-53
2022/12/07 02:46:33;;;;;;;8.30;0.93;;;;;;;8.61;100.00;95341.84;5071151;28;20489;-54
2022/12/07 02:49:02;;;;;;;4.83;0.50;;;;;;;9.00;100.00;95370.59;5071940;28;20427;-54
2022/12/07 02:51:32;;;;;;;1.10;1.00;;;;;;;9.03;100.00;95370.06;5072235;28;20438;-54
2022/12/07 02:54:01;;;;;;;1.27;1.27;;;;;;;8.67;100.00;95293.28;5071784;28;20475;-53
2022/12/07 02:56:38;;;;;;;0.70;0.70;;;;;;;9.14;100.00;95361.13;5071863;28;20945;-53
2022/12/07 02:59:21;;;;;;;1.53;0.33;;;;;;;9.19;100.00;95367.22;5071663;28;20425;-53
2022/12/07 03:02:01;;;;;;;0.73;0.60;;;;;;;9.23;100.00;95365.66;5072088;28;20460;-53
2022/12/07 03:04:42;;;;;;;0.47;0.30;;;;;;;9.25;100.00;95358.25;5071897;28;20426;-53
2022/12/07 03:07:19;;;;;;;0.57;0.50;;;;;;;9.26;100.00;95361.72;5071521;28;20515;-53
2022/12/07 03:09:59;;;;;;;2.33;1.23;;;;;;;9.28;100.00;95364.88;5072096;28;20441;-54
2022/12/07 03:12:33;;;;;;;1.57;1.47;;;;;;;9.17;100.00;95350.81;5072319;28;20455;-54
2022/12/07 03:15:07;;;;;;;0.93;0.93;;;;;;;9.22;100.00;95363.25;5071961;28;20425;-54
2022/12/07 03:17:41;;;;;;;0.60;0.60;;;;;;;9.19;100.00;95359.28;5071921;28;20524;-54
2022/12/07 03:20:17;;;;;;;1.43;1.33;;;;;;;9.08;100.00;95357.69;5071658;28;20434;-53
2022/12/07 03:22:48;;;;;;;0.87;0.87;;;;;;;9.21;100.00;95369.63;5071880;28;20472;-53
2022/12/07 03:25:18;;;;;;;0.43;0.40;;;;;;;9.16;100.00;95364.31;5071642;28;20509;-54
2022/12/07 03:27:52;;;;;;;0.50;0.50;;;;;;;9.12;100.00;95373.81;5071577;28;20463;-54
2022/12/07 03:30:23;;;;;;;1.47;1.37;;;;;;;9.08;100.00;95362.97;5073667;28;20945;-53
2022/12/07 03:32:59;;;;;;;0.60;0.60;;;;;;;9.07;100.00;95373.78;5075407;28;20430;-53
2022/12/07 03:35:31;;;;;;;0.50;0.50;;;;;;;9.07;100.00;95363.19;5075369;28;20442;-53
2022/12/07 03:38:05;;;;;;;1.00;1.00;;;;;;;8.80;100.00;95366.78;5075094;28;20419;-54
2022/12/07 03:40:38;;;;;;;1.20;0.50;;;;;;;8.59;100.00;95374.84;5075072;28;20424;-54
2022/12/07 03:43:06;;;;;;;4.80;1.30;;;;;;;8.46;100.00;95364.72;5074868;28;20501;-53
2022/12/07 03:45:40;;;;;;;0.87;0.83;;;;;;;8.44;100.00;95369.47;5074941;28;20495;-54
2022/12/07 03:48:21;;;;;;;0.50;0.50;;;;;;;8.46;100.00;95365.53;5074825;28;20943;-54
2022/12/07 03:50:53;;;;;;;0.87;0.87;;;;;;;8.50;100.00;95369.22;5075153;28;20454;-54
2022/12/07 03:53:28;;;;;;;0.93;0.93;;;;;;;8.45;100.00;95366.56;5074550;28;20514;-54
2022/12/07 03:55:58;;;;;;;6.60;1.53;;;;;;;8.37;100.00;95367.06;5074749;28;20435;-54
2022/12/07 03:58:27;;;;;;;5.13;2.50;;;;;;;8.44;100.00;95367.63;5073925;28;20430;-54
2022/12/07 04:00:56;;;;;;;1.00;0.57;;;;;;;8.57;100.00;95361.09;5074575;28;20425;-54
2022/12/07 04:03:25;;;;;;;1.90;1.37;;;;;;;8.58;100.00;95362.69;5074455;28;20468;-54
2022/12/07 04:05:54;;;;;;;1.33;1.33;;;;;;;8.42;100.00;95358.38;5074536;28;20434;-54
2022/12/07 04:08:22;;;;;;;3.70;1.43;;;;;;;8.28;100.00;95358.00;5074532;28;20474;-54
2022/12/07 04:10:51;;;;;;;0.60;0.50;;;;;;;8.14;100.00;95351.53;5074510;28;20435;-53
2022/12/07 04:13:19;;;;;;;0.43;0.43;;;;;;;8.24;100.00;95336.56;5074553;28;20819;-54
2022/12/07 04:15:47;;;;;;;0.83;0.83;;;;;;;8.40;100.00;95345.41;5074746;28;20436;-54
2022/12/07 04:18:16;;;;;;;1.40;0.87;;;;;;;8.53;100.00;95347.59;5074364;28;20429;-54
2022/12/07 04:20:47;;;;;;;5.40;0.67;;;;;;;8.49;100.00;95343.88;5074696;28;20448;-54
2022/12/07 04:23:15;;;;;;;0.80;0.73;;;;;;;8.46;100.00;95351.50;5074192;28;20480;-54
2022/12/07 04:25:44;;;;;;;1.10;0.73;;;;;;;8.42;100.00;95347.81;5074639;28;20414;-54
2022/12/07 04:28:12;;;;;;;2.13;0.57;;;;;;;8.36;100.00;95346.16;5074315;28;20848;-54
2022/12/07 04:30:40;;;;;;;3.07;0.67;;;;;;;8.32;100.00;95347.72;5074406;28;20437;-54
2022/12/07 04:33:09;;;;;;;1.33;1.33;;;;;;;8.31;100.00;95352.22;5074336;28;20434;-54
2022/12/07 04:35:37;;;;;;;1.33;0.90;;;;;;;8.24;100.00;95346.34;5074346;28;20433;-54
2022/12/07 04:38:07;;;;;;;0.73;0.73;;;;;;;8.15;100.00;95353.13;5074164;28;20429;-54
2022/12/07 04:40:35;;;;;;;0.83;0.83;;;;;;;8.08;100.00;95352.53;5073588;28;20800;-54
2022/12/07 04:43:04;;;;;;;1.27;0.77;;;;;;;8.11;100.00;95352.84;5074127;28;20470;-54
2022/12/07 04:45:32;;;;;;;0.50;0.40;;;;;;;8.07;100.00;95345.69;5073971;28;20510;-54
2022/12/07 04:48:01;;;;;;;0.50;0.40;;;;;;;8.14;100.00;95359.47;5073877;28;20422;-54
2022/12/07 04:50:29;;;;;;;0.50;0.50;;;;;;;7.96;100.00;95326.31;5073984;28;20469;-54
2022/12/07 04:52:58;;;;;;;0.77;0.77;;;;;;;7.96;100.00;95352.72;5073791;28;20858;-54
2022/12/07 04:55:28;;;;;;;0.80;0.70;;;;;;;8.06;100.00;95359.91;5073789;28;20959;-54
2022/12/07 04:57:56;;;;;;;2.10;0.73;;;;;;;8.12;100.00;95358.91;5073911;28;20432;-54
2022/12/07 05:00:24;;;;;;;0.53;0.43;;;;;;;8.08;100.00;95366.53;5073935;28;20433;-53
2022/12/07 05:02:53;;;;;;;0.40;0.40;;;;;;;8.10;100.00;95361.00;5073598;28;20473;-53
2022/12/07 05:05:21;;;;;;;1.27;1.17;;;;;;;8.13;100.00;95365.78;5073369;28;20468;-53
2022/12/07 05:07:49;;;;;;;1.17;1.10;;;;;;;8.17;100.00;95359.72;5073778;28;20428;-54
2022/12/07 05:10:18;;;;;;;0.63;0.63;;;;;;;8.12;100.00;95362.34;5073157;28;20529;-54
2022/12/07 05:12:48;;;;;;;0.60;0.60;;;;;;;8.11;100.00;95360.75;5073336;28;20415;-53
2022/12/07 05:15:17;;;;;;;8.00;1.57;;;;;;;8.00;100.00;95343.25;5073333;28;20435;-54
2022/12/07 05:17:45;;;;;;;0.70;0.70;;;;;;;8.00;100.00;95351.16;5073276;28;20434;-53
2022/12/07 05:20:13;;;;;;;5.70;2.70;;;;;;;8.00;100.00;95360.91;5073108;28;20444;-54
2022/12/07 05:22:41;;;;;;;0.60;0.60;;;;;;;8.00;100.00;95353.00;5073409;28;20470;-53
2022/12/07 05:25:10;;;;;;;1.30;1.30;;;;;;;7.92;100.00;95359.53;5073018;28;20947;-54
2022/12/07 05:27:38;;;;;;;1.30;1.30;;;;;;;7.78;100.00;95358.38;5072352;28;20434;-54
2022/12/07 05:30:09;;;;;;;0.83;0.83;;;;;;;7.80;100.00;95374.72;5072755;28;20426;-54
2022/12/07 05:32:37;;;;;;;1.40;1.30;;;;;;;7.81;100.00;95367.63;5072690;28;20428;-54
2022/12/07 05:35:06;;;;;;;0.40;0.33;;;;;;;7.83;100.00;95373.44;5072769;28;20505;-54
2022/12/07 05:37:35;;;;;;;0.90;0.70;;;;;;;7.72;100.00;95369.09;5072994;28;20414;-54
2022/12/07 05:40:04;;;;;;;5.73;0.93;;;;;;;7.78;100.00;95371.56;5072470;28;20524;-54
2022/12/07 05:42:32;;;;;;;0.67;0.67;;;;;;;7.91;100.00;95379.06;5072546;28;20465;-54
2022/12/07 05:45:00;;;;;;;0.83;0.80;;;;;;;8.01;100.00;95375.72;5072285;28;20934;-54
2022/12/07 05:47:30;;;;;;;2.10;1.80;;;;;;;7.98;100.00;95374.38;5072217;28;20438;-54
2022/12/07 05:49:58;;;;;;;0.80;0.80;;;;;;;7.99;100.00;95377.81;5072306;28;20889;-54
2022/12/07 05:52:27;;;;;;;3.50;1.13;;;;;;;7.97;100.00;95379.91;5071681;28;20476;-54
2022/12/07 05:54:56;;;;;;;2.20;2.00;;;;;;;8.02;100.00;95385.22;5072162;28;20489;-54
2022/12/07 05:57:24;;;;;;;2.83;2.73;;;;;;;8.09;100.00;95376.06;5072517;28;20423;-54
2022/12/07 05:59:51;;;;;;;1.37;1.37;;;;;;;8.21;100.00;95376.69;5072555;28;20430;-54
2022/12/07 06:02:20;;;;;;;1.20;1.10;;;;;;;8.15;100.00;95374.22;5072478;28;20426;-54
2022/12/07 06:04:50;;;;;;;3.70;1.63;;;;;;;8.07;100.00;95375.50;5072487;28;20427;-54
2022/12/07 06:07:18;;;;;;;1.33;1.23;;;;;;;8.10;100.00;95390.03;5072072;28;20953;-54
2022/12/07 06:09:47;;;;;;;1.77;1.67;;;;;;;8.18;100.00;95389.56;5072097;28;20439;-54
2022/12/07 06:15:01;;;;;;;1.33;1.33;;;;;;;8.37;100.00;95382.09;5072145;28;20433;-54
2022/12/07 06:17:29;;;;;;;3.20;1.20;;;;;;;8.62;100.00;95379.63;5071818;28;20895;-53
2022/12/07 06:19:59;;;;;;;2.00;1.90;;;;;;;8.86;100.00;95388.75;5071457;28;20522;-54
2022/12/07 06:22:28;;;;;;;9.83;3.23;;;;;;;8.80;100.00;95387.91;5072102;28;20909;-54
2022/12/07 06:24:56;;;;;;;17.03;2.67;;;;;;;8.87;100.00;95379.78;5071791;28;21057;-53
2022/12/07 06:27:24;;;;;;;3.00;2.53;;;;;;;8.90;100.00;95382.69;5071854;28;20999;-53
2022/12/07 06:29:53;;;;;;;2.93;2.73;;;;;;;9.02;100.00;95381.69;5072081;28;20426;-54
2022/12/07 06:32:21;;;;;;;3.67;3.57;;;;;;;8.56;100.00;95389.38;5071648;28;20456;-52
2022/12/07 06:34:49;;;;;;;4.30;4.00;;;;;;;8.42;100.00;95390.84;5072001;28;20448;-52
2022/12/07 06:37:19;;;;;;;11.70;4.60;;;;;;;8.00;100.00;95401.31;5071386;28;20443;-53
2022/12/07 06:39:47;;;;;;;3.87;2.70;;;;;;;7.79;100.00;95391.63;5071830;28;20545;-53
2022/12/07 06:42:15;;;;;;;1.77;1.60;;;;;;;7.92;100.00;95396.47;5071990;28;20894;-53
2022/12/07 06:44:44;;;;;;;2.13;2.03;;;;;;;7.92;100.00;95391.19;5071970;28;20477;-53
2022/12/07 06:47:12;;;;;;;3.23;1.73;;;;;;;7.75;100.00;95402.91;5071734;28;20496;-52
2022/12/07 06:50:00;;;;;;;2.63;2.53;;;;;;;7.67;100.00;95412.88;5071581;28;21005;-52
2022/12/07 06:52:31;;;;;;;4.67;1.43;;;;;;;7.34;100.00;95352.38;5071718;28;20504;-52
2022/12/07 06:54:59;;;;;;;3.23;0.80;;;;;;;8.16;100.00;95418.06;5072054;28;20419;-53
2022/12/07 06:57:28;;;;;;;6.20;1.93;;;;;;;7.45;100.00;95325.09;5071804;28;20425;-53
2022/12/07 06:59:56;;;;;;;4.60;1.07;;;;;;;8.40;100.00;95419.34;5071772;28;20806;-53
2022/12/07 07:02:24;;;;;;;1.47;1.47;;;;;;;7.95;100.00;95409.16;5071675;28;20435;-53
2022/12/07 07:04:53;;;;;;;1.00;1.00;;;;;;;8.11;100.00;95405.63;5073146;28;20595;-52
2022/12/07 07:07:21;;;;;;;0.50;0.50;;;;;;;8.42;100.00;95422.56;5075306;28;20520;-52
2022/12/07 07:09:51;;;;;;;3.40;2.43;;;;;;;8.65;100.00;95416.88;5075543;28;20501;-52
2022/12/07 07:12:19;;;;;;;1.43;1.33;;;;;;;8.57;100.00;95422.66;5075840;28;20435;-52
2022/12/07 07:14:48;;;;;;;1.27;1.03;;;;;;;8.46;100.00;95410.41;5075278;28;20422;-52
2022/12/07 07:17:16;;;;;;;6.00;2.83;;;;;;;8.73;100.00;95419.06;5075633;28;21060;-52
2022/12/07 07:19:44;;;;;;;2.50;2.30;;;;;;;8.47;100.00;95417.31;5075225;28;20655;-53
2022/12/07 07:22:12;;;;;;;1.27;1.17;;;;;;;8.73;100.00;95415.59;5075255;28;20430;-52
2022/12/07 07:24:41;;;;;;;1.80;1.70;;;;;;;8.75;100.00;95411.66;5075373;28;20824;-52
2022/12/07 07:27:10;;;;;;;1.53;1.43;;;;;;;9.30;100.00;95405.88;5075155;28;20422;-52
2022/12/07 07:29:38;;;;;;;1.07;1.07;;;;;;;9.70;100.00;95404.41;5074970;28;20488;-53
2022/12/07 07:32:07;;;;;;;1.30;1.30;;;;;;;10.12;100.00;95413.78;5075042;28;20425;-53
2022/12/07 07:34:36;;;;;;;5.00;2.20;;;;;;;9.63;100.00;95369.47;5075220;28;20513;-53
2022/12/07 07:37:04;;;;;;;1.50;1.40;;;;;;;10.27;100.00;95412.22;5074848;28;20429;-53
2022/12/07 07:39:32;;;;;;;3.40;2.30;;;;;;;9.84;100.00;95402.88;5074898;28;20421;-53
2022/12/07 07:42:04;;;;;;;1.47;0.80;;;;;;;9.88;100.00;95417.97;5075277;28;20425;-53
2022/12/07 07:44:35;;;;;;;2.40;2.20;;;;;;;10.06;100.00;95419.31;5074737;28;20470;-53
2022/12/07 07:47:03;;;;;;;2.50;1.97;;;;;;;9.78;100.00;95417.94;5074892;28;20448;-54
2022/12/07 07:49:32;;;;;;;1.53;1.43;;;;;;;9.98;100.00;95417.19;5074675;28;20432;-54
2022/12/07 07:52:00;;;;;;;1.13;1.13;;;;;;;9.88;100.00;95412.66;5074363;28;20888;-54
2022/12/07 07:54:28;;;;;;;1.77;1.77;;;;;;;10.05;100.00;95418.50;5074478;28;20425;-53
2022/12/07 07:56:56;;;;;;;2.00;1.90;;;;;;;10.07;100.00;95416.41;5074807;28;20929;-54
2022/12/07 07:59:25;;;;;;;1.20;0.73;;;;;;;9.73;100.00;95411.84;5074781;28;20435;-53
2022/12/07 08:01:55;;;;;;;1.07;0.70;;;;;;;9.97;100.00;95423.53;5074816;28;20444;-54
2022/12/07 08:04:23;;;;;;;2.37;2.27;;;;;;;9.49;100.00;95422.88;5074657;28;20851;-54
2022/12/07 08:06:52;;;;;;;7.40;2.87;;;;;;;9.53;100.00;95423.97;5074206;28;20820;-53
2022/12/07 08:09:20;;;;;;;9.43;3.77;;;;;;;9.73;100.00;95423.22;5074502;28;20450;-54
2022/12/07 08:11:48;;;;;;;1.80;1.70;;;;;;;9.81;100.00;95414.78;5074185;28;20432;-54
2022/12/07 08:14:17;;;;;;;3.40;1.47;;;;;;;9.78;100.00;95417.94;5074475;28;20440;-54
2022/12/07 08:16:45;;;;;;;3.03;1.37;;;;;;;9.93;100.00;95417.16;5073222;28;20964;-53
2022/12/07 08:19:15;;;;;;;1.70;1.60;;;;;;;9.92;100.00;95419.03;5074012;28;20432;-54
2022/12/07 08:21:43;;;;;;;1.90;1.80;;;;;;;10.19;100.00;95432.84;5074156;28;20431;-53
2022/12/07 08:24:11;;;;;;;0.60;0.60;;;;;;;10.35;100.00;95423.06;5074193;28;20977;-54
2022/12/07 08:26:39;;;;;;;4.83;1.97;;;;;;;10.31;100.00;95415.91;5073372;28;20436;-53
2022/12/07 08:29:08;;;;;;;2.60;2.50;;;;;;;10.37;100.00;95417.53;5073934;28;20421;-53
2022/12/07 08:31:36;;;;;;;3.00;2.90;;;;;;;10.05;100.00;95354.97;5074201;28;20436;-53
2022/12/07 08:34:05;;;;;;;1.13;0.83;;;;;;;10.06;100.00;95409.53;5072730;28;20559;-54
2022/12/07 08:36:34;;;;;;;1.33;1.07;;;;;;;10.53;100.00;95411.13;5073469;28;20430;-53
2022/12/07 08:39:03;;;;;;;1.00;1.00;;;;;;;10.24;99.29;95354.47;5073346;28;20434;-53
2022/12/07 08:41:51;;;;;;;2.90;1.10;;;;;;;10.62;99.43;95404.25;5073364;28;20999;-54
2022/12/07 08:44:19;;;;;;;1.60;1.50;;;;;;;10.19;100.00;95406.38;5073942;28;20499;-54
2022/12/07 08:46:54;;;;;;;1.40;1.30;;;;;;;10.43;100.00;95405.84;5073679;28;20431;-53
2022/12/07 08:49:26;;;;;;;1.23;1.23;;;;;;;10.62;99.30;95402.41;5073812;28;20739;-54
2022/12/07 08:51:56;;;;;;;2.30;2.20;;;;;;;10.88;98.06;95405.78;5073068;28;20537;-54
2022/12/07 08:54:24;;;;;;;3.10;2.90;;;;;;;10.86;97.25;95399.97;5073389;28;20428;-53
2022/12/07 08:56:56;;;;;;;9.53;1.33;;;;;;;11.11;96.51;95402.56;5073467;28;20430;-53
2022/12/07 08:59:28;;;;;;;2.00;1.87;;;;;;;10.58;93.59;95355.47;5073348;28;20449;-53
2022/12/07 09:01:57;;;;;;;2.90;1.30;;;;;;;11.04;92.54;95398.59;5073400;28;20446;-54
2022/12/07 09:04:25;;;;;;;1.40;1.30;;;;;;;11.05;94.71;95387.75;5073648;28;20526;-54
2022/12/07 09:06:56;;;;;;;2.10;2.00;;;;;;;11.00;93.91;95392.25;5073705;28;20811;-54
2022/12/07 09:09:25;;;;;;;0.50;0.50;;;;;;;11.33;91.31;95389.72;5073195;28;20996;-55
2022/12/07 09:11:53;;;;;;;1.33;0.80;;;;;;;11.56;90.13;95387.53;5073528;28;20431;-55
2022/12/07 09:14:21;;;;;;;2.40;1.93;;;;;;;11.40;90.54;95379.66;5073498;28;20456;-55
2022/12/07 09:16:50;;;;;;;2.50;0.90;;;;;;;11.21;91.09;95381.28;5073239;28;20522;-55
2022/12/07 09:19:18;;;;;;;1.40;1.30;;;;;;;11.21;94.32;95381.28;5073371;28;20418;-55
2022/12/07 09:21:46;;;;;;;1.27;1.27;;;;;;;11.14;93.47;95372.84;5072994;28;20521;-55
2022/12/07 09:24:16;;;;;;;4.50;1.73;;;;;;;10.99;96.03;95370.25;5073056;28;20928;-54
2022/12/07 09:26:44;;;;;;;3.10;1.40;;;;;;;11.19;96.03;95367.50;5072351;28;20443;-55
2022/12/07 09:29:13;;;;;;;1.63;1.53;;;;;;;11.31;94.60;95361.88;5072658;28;20435;-54
2022/12/07 09:31:41;;;;;;;3.33;3.13;;;;;;;10.50;98.40;95292.44;5072791;28;20964;-55
2022/12/07 09:34:10;;;;;;;1.77;1.67;;;;;;;11.05;97.28;95355.09;5072921;28;20786;-53
2022/12/07 09:36:38;;;;;;;4.87;3.40;;;;;;;10.84;98.74;95360.47;5072553;28;20496;-54
2022/12/07 09:39:06;;;;;;;3.23;2.73;;;;;;;10.68;100.00;95355.47;5072440;28;20435;-54
2022/12/07 09:41:39;;;;;;;2.00;1.77;;;;;;;10.55;100.00;95350.75;5072039;28;20530;-54
2022/12/07 09:44:12;;;;;;;3.10;2.93;;;;;;;10.51;100.00;95360.25;5072394;28;20558;-54
2022/12/07 09:46:42;;;;;;;4.53;3.33;;;;;;;10.32;100.00;95346.00;5072427;28;20487;-54
2022/12/07 09:49:15;;;;;;;1.30;1.30;;;;;;;9.75;100.00;95235.84;5072161;28;20461;-54
2022/12/07 09:51:43;;;;;;;1.40;1.33;;;;;;;10.66;100.00;95337.19;5072279;28;20490;-54
2022/12/07 09:54:14;;;;;;;1.43;0.97;;;;;;;10.75;100.00;95306.41;5072238;28;20473;-54
2022/12/07 09:56:45;;;;;;;2.03;1.90;;;;;;;10.86;100.00;95331.03;5072293;28;20430;-54
2022/12/07 09:59:18;;;;;;;1.30;1.20;;;;;;;10.99;100.00;95329.66;5072009;28;20504;-54
2022/12/07 10:01:48;;;;;;;5.57;1.00;;;;;;;10.68;100.00;95326.31;5072293;28;20435;-54
2022/12/07 10:04:21;;;;;;;2.60;1.40;;;;;;;10.35;100.00;95326.91;5072337;28;20877;-54
2022/12/07 10:06:50;;;;;;;1.73;1.63;;;;;;;10.73;100.00;95319.13;5071173;28;20473;-54
2022/12/07 10:09:21;;;;;;;1.90;1.03;;;;;;;10.61;100.00;95326.59;5072027;28;20521;-54
2022/12/07 10:12:08;;;;;;;1.53;0.70;;;;;;;10.56;100.00;95328.47;5071729;28;20937;-54
2022/12/07 10:14:39;;;;;;;1.17;1.17;;;;;;;10.83;100.00;95318.31;5071918;28;20435;-54
2022/12/07 10:17:35;;;;;;;2.13;0.83;;;;;;;10.85;100.00;95313.56;5071470;28;20436;-55
2022/12/07 10:20:17;;;;;;;2.10;1.90;;;;;;;11.07;100.00;95306.03;5071727;28;20428;-54
2022/12/07 10:23:02;;;;;;;2.20;1.23;;;;;;;11.09;100.00;95298.59;5071883;28;20530;-54
2022/12/07 10:25:33;;;;;;;1.93;1.80;;;;;;;11.24;99.50;95273.84;5071903;28;20475;-54
2022/12/07 10:28:12;;;;;;;0.97;0.97;;;;;;;11.67;95.42;95294.28;5072237;28;20834;-54
2022/12/07 10:30:50;;;;;;;1.00;1.00;;;;;;;11.26;92.59;95208.03;5072247;28;20438;-54
2022/12/07 10:33:30;;;;;;;0.70;0.67;;;;;;;11.71;92.50;95283.94;5072110;28;20875;-54
2022/12/07 10:36:00;;;;;;;0.80;0.80;;;;;;;11.58;94.06;95282.66;5071552;28;20436;-54
2022/12/07 10:38:32;;;;;;;1.47;1.40;;;;;;;11.43;94.79;95282.78;5071503;28;20512;-55
2022/12/07 10:41:07;;;;;;;0.50;0.50;;;;;;;11.54;93.07;95278.97;5072111;28;20834;-55
2022/12/07 10:43:48;;;;;;;0.60;0.60;;;;;;;11.45;94.25;95272.66;5072093;28;20436;-55
2022/12/07 10:46:50;;;;;;;1.90;1.37;;;;;;;11.26;96.37;95282.31;5071986;28;20533;-55
2022/12/07 10:50:10;;;;;;;1.20;1.10;;;;;;;10.61;100.00;95280.75;5071414;28;20454;-54
2022/12/07 10:52:54;;;;;;;4.03;1.90;;;;;;;10.69;100.00;95277.53;5071467;28;20602;-55
2022/12/07 10:55:30;;;;;;;1.00;0.77;;;;;;;11.19;98.82;95272.00;5071720;28;20428;-54
2022/12/07 10:58:17;;;;;;;5.67;2.37;;;;;;;11.37;97.13;95266.06;5070916;28;20893;-54
2022/12/07 11:00:58;;;;;;;0.80;0.80;;;;;;;11.55;94.54;95261.19;5071498;28;20491;-54
2022/12/07 11:03:54;;;;;;;0.90;0.90;;;;;;;11.84;93.98;95262.06;5070968;28;20465;-54
2022/12/07 11:06:34;;;;;;;0.73;0.73;;;;;;;11.79;91.44;95252.25;5069967;28;20521;-54
2022/12/07 11:09:22;;;;;;;1.43;0.80;;;;;;;12.22;90.30;95252.44;5071233;28;20435;-54
2022/12/07 11:12:19;;;;;;;1.70;1.60;;;;;;;12.39;89.75;95247.47;5071029;28;21113;-55
2022/12/07 11:14:56;;;;;;;3.23;2.93;;;;;;;12.19;88.34;95245.03;5071352;28;20440;-55
2022/12/07 11:17:36;;;;;;;1.73;1.53;;;;;;;12.43;90.97;95233.34;5071040;28;20523;-55
2022/12/07 11:20:21;;;;;;;2.93;1.27;;;;;;;12.53;87.94;95233.22;5071693;28;20783;-55
2022/12/07 11:22:58;;;;;;;2.10;1.03;;;;;;;13.11;86.86;95225.88;5071379;28;20442;-55
2022/12/07 11:25:33;;;;;;;1.43;1.43;;;;;;;13.14;82.84;95216.53;5071580;28;20886;-55
2022/12/07 11:28:17;;;;;;;1.20;1.20;;;;;;;13.55;80.67;95217.53;5071310;28;20435;-55
2022/12/07 11:30:57;;;;;;;0.90;0.90;;;;;;;13.35;81.93;95205.34;5071713;28;20428;-55
2022/12/07 11:33:35;;;;;;;2.73;1.90;;;;;;;13.45;82.21;95216.91;5071645;28;20446;-56
2022/12/07 11:36:11;;;;;;;6.00;5.37;;;;;;;13.54;80.24;95207.97;5071288;28;20422;-55
2022/12/07 11:38:47;;;;;;;1.83;1.73;;;;;;;13.51;81.15;95210.44;5071349;28;20429;-56
2022/12/07 11:41:24;;;;;;;2.27;1.67;;;;;;;13.75;78.56;95205.78;5071463;28;20858;-56
2022/12/07 11:43:57;;;;;;;3.10;1.97;;;;;;;13.91;77.97;95207.88;5071250;28;20432;-56
2022/12/07 11:46:28;;;;;;;2.00;0.70;;;;;;;13.35;77.84;95202.66;5071511;28;20597;-56
2022/12/07 11:49:12;;;;;;;0.67;0.63;;;;;;;13.53;77.79;95194.94;5071283;28;20432;-56
2022/12/07 11:51:43;;;;;;;1.30;1.20;;;;;;;13.22;77.63;95198.06;5072874;28;20422;-56
2022/12/07 11:54:17;;;;;;;1.63;1.53;;;;;;;13.00;81.04;95195.16;5074557;28;21012;-56
2022/12/07 11:56:49;;;;;;;0.50;0.40;;;;;;;13.01;82.75;95183.41;5074712;28;20459;-56